Time;durP1;ratioP1;P1;durP2;ratioP2;P2;SDS_P1;SDS_P2;PMS_P1;PMS_P2;Temp;Humidity;BMP_temperature;BMP_pressure;BME280_temperature;BME280_humidity;BME280_pressure;Samples;Min_cycle;Max_cycle;Signal;HPM_P1;HPM_P2
2022/10/22 00:02:08;;;;;;;18.30;9.10;;;14.30;99.90;;;;;;5053409;28;20381;-73
2022/10/22 00:04:33;;;;;;;18.40;8.32;;;14.30;99.90;;;;;;5053791;28;20401;-72
2022/10/22 00:06:59;;;;;;;11.02;7.10;;;14.30;99.90;;;;;;5053726;28;20388;-73
2022/10/22 00:09:25;;;;;;;11.13;7.20;;;14.30;99.90;;;;;;5053832;28;20420;-73
2022/10/22 00:11:50;;;;;;;12.60;7.32;;;14.40;99.90;;;;;;5053600;28;20874;-72
2022/10/22 00:14:16;;;;;;;17.50;8.10;;;14.30;99.90;;;;;;5053556;28;20385;-73
2022/10/22 00:16:42;;;;;;;14.53;7.50;;;14.30;99.90;;;;;;5053958;28;20430;-74
2022/10/22 00:19:08;;;;;;;11.87;8.67;;;14.30;99.90;;;;;;5053781;28;20779;-73
2022/10/22 00:21:34;;;;;;;13.90;8.30;;;14.30;99.90;;;;;;5035791;28;20400;-74
2022/10/22 00:24:00;;;;;;;14.40;8.70;;;14.30;99.90;;;;;;5053568;28;20742;-74
2022/10/22 00:26:26;;;;;;;15.50;7.30;;;14.30;99.90;;;;;;5053611;28;20765;-72
2022/10/22 00:28:52;;;;;;;16.97;8.97;;;14.40;99.90;;;;;;5053252;28;20378;-74
2022/10/22 00:31:18;;;;;;;13.20;7.70;;;14.40;99.90;;;;;;5053047;28;20381;-73
2022/10/22 00:33:46;;;;;;;13.00;7.43;;;14.40;99.90;;;;;;5053631;28;20806;-72
2022/10/22 00:36:11;;;;;;;14.75;9.00;;;14.50;99.90;;;;;;5035590;28;20446;-74
2022/10/22 00:38:38;;;;;;;15.00;8.00;;;14.60;99.90;;;;;;5054170;28;20846;-74
2022/10/22 00:41:03;;;;;;;15.40;8.02;;;14.50;99.90;;;;;;5053171;28;20378;-74
2022/10/22 00:43:29;;;;;;;19.08;8.50;;;14.50;99.90;;;;;;5053024;28;20462;-73
2022/10/22 00:45:54;;;;;;;21.67;8.10;;;14.50;99.90;;;;;;5053294;28;20377;-72
2022/10/22 00:48:28;;;;;;;17.30;7.93;;;14.60;99.90;;;;;;5053317;28;20460;-74
2022/10/22 00:51:06;;;;;;;15.60;8.60;;;14.60;99.90;;;;;;5035387;28;20913;-72
2022/10/22 00:53:40;;;;;;;12.40;7.13;;;14.60;99.90;;;;;;5052974;28;20394;-73
2022/10/22 00:56:06;;;;;;;14.50;7.80;;;14.60;99.90;;;;;;5035346;28;20421;-74
2022/10/22 00:58:35;;;;;;;19.27;7.80;;;14.60;99.90;;;;;;5052812;28;20402;-74
2022/10/22 01:01:02;;;;;;;13.60;8.20;;;14.60;99.90;;;;;;5053136;28;20381;-73
2022/10/22 01:03:28;;;;;;;21.88;7.88;;;14.60;99.90;;;;;;5054224;28;20762;-74
2022/10/22 01:05:57;;;;;;;13.13;7.20;;;14.70;99.90;;;;;;5053782;28;20378;-73
2022/10/22 01:08:26;;;;;;;14.82;7.72;;;14.70;99.90;;;;;;5053526;28;20434;-73
2022/10/22 01:11:00;;;;;;;17.60;8.68;;;14.60;99.90;;;;;;5052985;28;20377;-75
2022/10/22 01:13:39;;;;;;;12.60;8.20;;;14.50;99.90;;;;;;5052799;28;20396;-73
2022/10/22 01:16:13;;;;;;;13.43;7.68;;;14.50;99.90;;;;;;5053646;28;20727;-74
2022/10/22 01:18:47;;;;;;;20.13;8.30;;;14.60;99.90;;;;;;5053264;28;20416;-74
2022/10/22 01:21:18;;;;;;;24.23;9.40;;;14.50;99.90;;;;;;5052415;28;20381;-73
2022/10/22 01:24:18;;;;;;;16.98;8.07;;;14.50;99.90;;;;;;5052397;28;20412;-73
2022/10/22 01:27:08;;;;;;;18.07;7.43;;;14.50;99.90;;;;;;5052692;28;20400;-74
2022/10/22 01:29:56;;;;;;;15.73;8.20;;;14.50;99.90;;;;;;5034369;28;20377;-74
2022/10/22 01:32:24;;;;;;;13.35;6.88;;;14.40;99.90;;;;;;5052142;28;20404;-74
2022/10/22 01:34:57;;;;;;;16.48;7.22;;;14.40;99.90;;;;;;5052214;28;20381;-74
2022/10/22 01:37:27;;;;;;;12.48;7.50;;;14.50;99.90;;;;;;5051940;28;20937;-74
2022/10/22 01:39:54;;;;;;;19.38;8.40;;;14.40;99.90;;;;;;5052367;28;20385;-75
2022/10/22 01:42:20;;;;;;;11.33;7.80;;;14.40;99.90;;;;;;5050990;28;20401;-73
2022/10/22 01:44:48;;;;;;;17.83;8.43;;;14.40;99.90;;;;;;5051770;28;20409;-73
2022/10/22 01:47:17;;;;;;;16.50;8.48;;;14.40;99.90;;;;;;5051846;28;20382;-73
2022/10/22 01:49:54;;;;;;;16.75;8.30;;;14.40;99.90;;;;;;5052427;28;20965;-73
2022/10/22 01:53:01;;;;;;;16.27;8.20;;;14.40;99.90;;;;;;5051855;28;20385;-73
2022/10/22 01:56:04;;;;;;;16.27;8.30;;;14.50;99.90;;;;;;5051667;28;20420;-73
2022/10/22 01:59:06;;;;;;;17.08;7.90;;;14.40;99.90;;;;;;5051502;28;20405;-74
2022/10/22 02:01:43;;;;;;;14.30;7.82;;;14.40;99.90;;;;;;5051386;28;20380;-74
2022/10/22 02:04:28;;;;;;;13.80;8.77;;;14.40;99.90;;;;;;5051451;28;20401;-72
2022/10/22 02:06:58;;;;;;;20.98;7.95;;;14.40;99.90;;;;;;5052125;28;20460;-74
2022/10/22 02:09:26;;;;;;;15.60;8.23;;;14.40;99.90;;;;;;5051318;28;20373;-73
2022/10/22 02:11:52;;;;;;;23.20;8.25;;;14.50;99.90;;;;;;5051336;28;20728;-74
2022/10/22 02:14:19;;;;;;;17.50;7.85;;;14.50;99.90;;;;;;5051395;28;20401;-74
2022/10/22 02:16:48;;;;;;;18.13;7.95;;;14.50;99.90;;;;;;5033601;28;20750;-74
2022/10/22 02:19:21;;;;;;;19.13;7.60;;;14.60;99.90;;;;;;5051500;28;20439;-75
2022/10/22 02:21:47;;;;;;;14.40;8.00;;;14.60;99.90;;;;;;5051638;28;20468;-73
2022/10/22 02:24:12;;;;;;;19.70;8.73;;;14.60;99.90;;;;;;5052017;28;20500;-73
2022/10/22 02:26:43;;;;;;;13.73;7.60;;;14.60;99.90;;;;;;5052481;28;20397;-73
2022/10/22 02:29:17;;;;;;;16.58;7.93;;;14.60;99.90;;;;;;5051873;28;20842;-72
2022/10/22 02:31:45;;;;;;;15.00;7.90;;;14.60;99.90;;;;;;5051659;28;20754;-74
2022/10/22 02:34:16;;;;;;;18.67;8.23;;;14.60;99.90;;;;;;5051654;28;20393;-73
2022/10/22 02:36:43;;;;;;;14.23;8.50;;;14.50;99.90;;;;;;5051302;28;20385;-73
2022/10/22 02:39:11;;;;;;;16.67;7.70;;;14.60;99.90;;;;;;5050796;28;20442;-73
2022/10/22 02:41:37;;;;;;;17.70;8.10;;;14.60;99.90;;;;;;5050788;28;20381;-74
2022/10/22 02:44:08;;;;;;;18.08;8.05;;;14.50;99.90;;;;;;5050943;28;20413;-72
2022/10/22 02:46:33;;;;;;;17.20;8.30;;;14.50;99.90;;;;;;5050514;28;20840;-72
2022/10/22 02:48:59;;;;;;;22.20;9.00;;;14.50;99.90;;;;;;5050649;28;20456;-72
2022/10/22 02:51:25;;;;;;;15.43;8.20;;;14.40;99.90;;;;;;5050335;28;20531;-72
2022/10/22 02:53:50;;;;;;;11.87;7.90;;;14.30;99.90;;;;;;5050374;28;20878;-73
2022/10/22 02:56:16;;;;;;;15.57;8.43;;;14.30;99.90;;;;;;5053778;28;20480;-74
2022/10/22 02:58:42;;;;;;;18.85;8.88;;;14.20;99.90;;;;;;5054840;28;20395;-71
2022/10/22 03:01:07;;;;;;;20.10;9.70;;;14.20;99.90;;;;;;5036646;28;21103;-73
2022/10/22 03:03:33;;;;;;;17.77;9.10;;;14.10;99.90;;;;;;5054545;28;20504;-73
2022/10/22 03:05:58;;;;;;;20.50;9.00;;;14.10;99.90;;;;;;5054626;28;20753;-73
2022/10/22 03:08:24;;;;;;;18.47;9.90;;;14.10;99.90;;;;;;5054511;28;20373;-72
2022/10/22 03:10:49;;;;;;;19.42;9.43;;;14.00;99.90;;;;;;5054393;28;20376;-72
2022/10/22 03:13:15;;;;;;;15.07;9.35;;;14.00;99.90;;;;;;5054126;28;20381;-73
2022/10/22 03:15:40;;;;;;;15.60;9.17;;;14.00;99.90;;;;;;5054386;28;20436;-73
2022/10/22 03:18:06;;;;;;;17.67;9.57;;;14.00;99.90;;;;;;5054423;28;20918;-72
2022/10/22 03:20:32;;;;;;;20.27;11.27;;;13.90;99.90;;;;;;5054296;28;20762;-72
2022/10/22 03:22:57;;;;;;;22.13;11.55;;;13.90;99.90;;;;;;5053956;28;20378;-73
2022/10/22 03:25:25;;;;;;;23.67;11.07;;;13.80;99.90;;;;;;5054345;28;20728;-73
2022/10/22 03:27:53;;;;;;;22.05;10.80;;;13.80;99.90;;;;;;5054232;28;20862;-72
2022/10/22 03:30:18;;;;;;;17.58;10.55;;;13.80;99.90;;;;;;5054018;28;20388;-73
2022/10/22 03:32:44;;;;;;;20.60;11.40;;;13.70;99.90;;;;;;5053979;28;20389;-72
2022/10/22 03:35:09;;;;;;;23.80;10.40;;;13.70;99.90;;;;;;5054071;28;20855;-73
2022/10/22 03:37:36;;;;;;;19.20;10.73;;;13.70;99.90;;;;;;5054095;28;20472;-72
2022/10/22 03:40:04;;;;;;;22.08;11.05;;;13.70;99.90;;;;;;5054031;28;20381;-71
2022/10/22 03:42:30;;;;;;;21.05;11.63;;;13.70;99.90;;;;;;5053828;28;20412;-71
2022/10/22 03:44:56;;;;;;;22.03;11.50;;;13.80;99.90;;;;;;5053999;28;20496;-73
2022/10/22 03:47:23;;;;;;;23.00;12.30;;;13.80;99.90;;;;;;5054123;28;20472;-73
2022/10/22 03:49:49;;;;;;;23.40;12.70;;;13.90;99.90;;;;;;5053923;28;20894;-73
2022/10/22 03:52:15;;;;;;;17.60;11.50;;;13.90;99.90;;;;;;5053818;28;20385;-73
2022/10/22 03:54:41;;;;;;;19.40;11.80;;;14.00;99.90;;;;;;5054030;28;20397;-73
2022/10/22 03:57:07;;;;;;;22.07;11.80;;;14.00;99.90;;;;;;5053940;28;20469;-72
2022/10/22 03:59:44;;;;;;;17.42;10.93;;;14.00;99.90;;;;;;5053675;28;20912;-72
2022/10/22 04:02:11;;;;;;;23.30;11.13;;;14.10;99.90;;;;;;5053435;28;20484;-72
2022/10/22 04:04:37;;;;;;;19.13;11.00;;;14.10;99.90;;;;;;5053594;28;20413;-73
2022/10/22 04:07:04;;;;;;;21.02;11.25;;;14.10;99.90;;;;;;5035207;28;20384;-73
2022/10/22 04:09:31;;;;;;;20.50;11.13;;;14.20;99.90;;;;;;5053312;28;20389;-73
2022/10/22 04:11:57;;;;;;;19.52;10.75;;;14.10;99.90;;;;;;5053307;28;20409;-73
2022/10/22 04:14:23;;;;;;;18.63;11.20;;;14.10;99.90;;;;;;5053400;28;20385;-73
2022/10/22 04:16:48;;;;;;;19.85;11.07;;;14.00;99.90;;;;;;5054001;28;20447;-74
2022/10/22 04:19:14;;;;;;;23.70;11.27;;;13.90;99.90;;;;;;5053729;28;20492;-73
2022/10/22 04:21:40;;;;;;;17.02;11.77;;;13.90;99.90;;;;;;5053677;28;20393;-73
2022/10/22 04:24:05;;;;;;;26.10;13.80;;;13.80;99.90;;;;;;5054186;28;20452;-72
2022/10/22 04:26:31;;;;;;;22.07;12.30;;;13.80;99.90;;;;;;5053582;28;20472;-72
2022/10/22 04:28:56;;;;;;;24.23;11.68;;;13.80;99.90;;;;;;5035699;28;20374;-74
2022/10/22 04:31:24;;;;;;;25.40;12.77;;;13.80;99.90;;;;;;5053539;28;20531;-73
2022/10/22 04:33:58;;;;;;;22.95;13.63;;;13.70;99.90;;;;;;5054512;28;20392;-73
2022/10/22 04:36:24;;;;;;;25.33;14.07;;;13.60;99.90;;;;;;5053944;28;20388;-72
2022/10/22 04:38:55;;;;;;;20.47;12.70;;;13.60;99.90;;;;;;5053643;28;20378;-71
2022/10/22 04:41:33;;;;;;;21.13;13.05;;;13.60;99.90;;;;;;5052975;28;20390;-72
2022/10/22 04:43:59;;;;;;;20.40;13.57;;;13.60;99.90;;;;;;5054053;28;20794;-73
2022/10/22 04:46:28;;;;;;;25.30;14.50;;;13.50;99.90;;;;;;5053775;28;20404;-74
2022/10/22 04:48:54;;;;;;;25.05;14.73;;;13.50;99.90;;;;;;5053131;28;20761;-73
2022/10/22 04:51:22;;;;;;;29.38;17.83;;;13.50;99.90;;;;;;5053793;28;20473;-74
2022/10/22 04:53:48;;;;;;;33.63;17.58;;;13.50;99.90;;;;;;5053873;28;20889;-73
2022/10/22 04:56:23;;;;;;;33.20;19.10;;;13.50;99.90;;;;;;5036804;28;20417;-73
2022/10/22 04:58:58;;;;;;;29.08;18.67;;;13.40;99.90;;;;;;5058274;28;20397;-74
2022/10/22 05:01:31;;;;;;;30.30;19.05;;;13.40;99.90;;;;;;5057517;28;20377;-73
2022/10/22 05:04:00;;;;;;;37.55;17.38;;;13.40;99.90;;;;;;5054838;28;20411;-74
2022/10/22 05:06:27;;;;;;;29.70;18.02;;;13.30;99.90;;;;;;5053284;28;20378;-73
2022/10/22 05:08:58;;;;;;;31.85;16.02;;;13.30;99.90;;;;;;5054429;28;20385;-73
2022/10/22 05:11:29;;;;;;;33.40;17.45;;;13.40;99.90;;;;;;5036854;28;20749;-72
2022/10/22 05:13:56;;;;;;;33.63;17.92;;;13.30;99.90;;;;;;5053487;28;20400;-74
2022/10/22 05:16:22;;;;;;;32.75;18.08;;;13.30;99.90;;;;;;5053011;28;20446;-72
2022/10/22 05:18:48;;;;;;;44.45;20.77;;;13.20;99.90;;;;;;5051865;28;20390;-73
2022/10/22 05:21:17;;;;;;;36.73;21.67;;;13.20;99.90;;;;;;5034362;28;20393;-72
2022/10/22 05:23:45;;;;;;;44.73;24.80;;;13.20;99.90;;;;;;5052309;28;20893;-73
2022/10/22 05:26:12;;;;;;;57.90;32.78;;;13.20;99.90;;;;;;5052377;28;20389;-72
2022/10/22 05:28:38;;;;;;;61.17;38.10;;;13.20;99.90;;;;;;5052205;28;20434;-75
2022/10/22 05:31:06;;;;;;;71.00;43.80;;;13.20;99.90;;;;;;5051981;28;20382;-73
2022/10/22 05:33:32;;;;;;;76.10;48.87;;;13.20;99.90;;;;;;5052677;28;20750;-73
2022/10/22 05:35:59;;;;;;;97.10;59.20;;;13.20;99.90;;;;;;5052151;28;20790;-71
2022/10/22 05:38:25;;;;;;;92.97;58.95;;;13.20;99.90;;;;;;5051851;28;20443;-72
2022/10/22 05:41:06;;;;;;;120.70;71.33;;;13.10;99.90;;;;;;5052025;28;20381;-73
2022/10/22 05:43:32;;;;;;;105.32;69.85;;;13.10;99.90;;;;;;5051951;28;20413;-74
2022/10/22 05:46:06;;;;;;;116.05;71.05;;;13.20;99.90;;;;;;5052247;28;20374;-73
2022/10/22 05:48:32;;;;;;;116.32;70.82;;;13.10;99.90;;;;;;5051547;28;20464;-73
2022/10/22 05:51:04;;;;;;;109.93;67.13;;;13.10;99.90;;;;;;5033658;28;20488;-72
2022/10/22 05:53:31;;;;;;;88.32;53.70;;;13.00;99.90;;;;;;5051596;28;20401;-72
2022/10/22 05:56:03;;;;;;;89.15;54.50;;;13.10;99.90;;;;;;5051757;28;20415;-74
2022/10/22 05:58:29;;;;;;;71.00;43.22;;;13.20;99.90;;;;;;5032821;28;20411;-73
2022/10/22 06:01:00;;;;;;;62.22;38.15;;;13.20;99.90;;;;;;5058763;28;20484;-73
2022/10/22 06:03:27;;;;;;;51.33;29.52;;;13.20;99.90;;;;;;5051280;28;20467;-72
2022/10/22 06:05:53;;;;;;;46.67;25.30;;;13.30;99.90;;;;;;5032752;28;20921;-73
2022/10/22 06:08:19;;;;;;;35.45;22.52;;;13.50;99.90;;;;;;5051282;28;20422;-73
2022/10/22 06:10:45;;;;;;;43.17;23.23;;;13.50;99.90;;;;;;5051649;28;20397;-73
2022/10/22 06:13:10;;;;;;;36.90;21.65;;;13.40;99.90;;;;;;5052058;28;20389;-72
2022/10/22 06:15:36;;;;;;;37.37;20.97;;;13.50;99.90;;;;;;5054935;28;20386;-71
2022/10/22 06:18:01;;;;;;;37.03;19.57;;;13.50;99.90;;;;;;5055367;28;20377;-74
2022/10/22 06:20:27;;;;;;;41.50;18.98;;;13.60;99.90;;;;;;5052332;28;20870;-74
2022/10/22 06:22:52;;;;;;;28.90;17.65;;;13.60;99.90;;;;;;5053657;28;20384;-74
2022/10/22 06:25:18;;;;;;;32.40;16.90;;;13.60;99.90;;;;;;5053908;28;20404;-74
2022/10/22 06:27:50;;;;;;;28.37;15.63;;;13.50;99.90;;;;;;5052450;28;20382;-75
2022/10/22 06:30:16;;;;;;;24.87;15.63;;;13.70;99.90;;;;;;5053818;28;20408;-72
2022/10/22 06:32:41;;;;;;;31.43;16.47;;;13.60;99.90;;;;;;5051642;28;20426;-74
2022/10/22 06:35:07;;;;;;;29.37;16.40;;;13.60;99.90;;;;;;5051084;28;20762;-73
2022/10/22 06:37:32;;;;;;;25.27;16.10;;;13.60;99.90;;;;;;5051015;28;20395;-73
2022/10/22 06:39:58;;;;;;;24.40;16.05;;;13.60;99.90;;;;;;5047289;28;20470;-71
2022/10/22 06:42:23;;;;;;;27.52;16.05;;;13.60;99.90;;;;;;5044624;28;20397;-73
2022/10/22 06:44:49;;;;;;;36.40;17.63;;;13.70;99.90;;;;;;5048564;28;20413;-72
2022/10/22 06:47:14;;;;;;;27.27;16.30;;;13.60;99.90;;;;;;5048955;28;20492;-73
2022/10/22 06:49:41;;;;;;;31.88;16.23;;;13.60;99.90;;;;;;5030481;28;20406;-73
2022/10/22 06:52:07;;;;;;;29.75;16.00;;;13.70;99.90;;;;;;5047662;28;20870;-73
2022/10/22 06:54:32;;;;;;;27.70;16.37;;;13.80;99.90;;;;;;5047838;28;20404;-73
2022/10/22 06:56:58;;;;;;;24.50;15.73;;;13.90;99.90;;;;;;5046263;28;20953;-72
2022/10/22 06:59:23;;;;;;;24.93;15.10;;;14.00;99.90;;;;;;5032975;28;20924;-72
2022/10/22 07:01:49;;;;;;;28.85;14.68;;;14.10;99.90;;;;;;5029844;28;20436;-72
2022/10/22 07:04:14;;;;;;;23.35;15.90;;;14.20;99.90;;;;;;5047874;28;20471;-74
2022/10/22 07:06:40;;;;;;;26.13;14.17;;;14.30;99.90;;;;;;5048256;28;20400;-75
2022/10/22 07:09:05;;;;;;;25.87;14.70;;;14.40;99.90;;;;;;5048592;28;20373;-72
2022/10/22 07:11:42;;;;;;;24.80;14.60;;;14.60;99.90;;;;;;5047582;28;20502;-72
2022/10/22 07:14:09;;;;;;;22.23;15.70;;;14.70;99.90;;;;;;5048931;28;20385;-74
2022/10/22 07:16:34;;;;;;;23.60;13.77;;;14.80;99.90;;;;;;5031056;28;20396;-77
2022/10/22 07:19:01;;;;;;;21.77;13.60;;;14.90;99.90;;;;;;5048962;28;20917;-72
2022/10/22 07:21:27;;;;;;;21.70;11.95;;;15.00;99.90;;;;;;5047543;28;20396;-73
2022/10/22 07:23:53;;;;;;;24.87;13.63;;;15.00;99.90;;;;;;5048002;28;20417;-74
2022/10/22 07:26:19;;;;;;;24.75;12.30;;;15.00;99.90;;;;;;5047835;28;20392;-73
2022/10/22 07:28:45;;;;;;;24.02;11.30;;;15.10;99.90;;;;;;5030013;28;20385;-75
2022/10/22 07:31:12;;;;;;;20.58;12.45;;;15.10;99.90;;;;;;5064811;28;20498;-74
2022/10/22 07:33:38;;;;;;;19.42;10.77;;;15.10;99.90;;;;;;5067997;28;20517;-74
2022/10/22 07:36:06;;;;;;;19.23;11.38;;;15.20;99.90;;;;;;5049846;28;20384;-71
2022/10/22 07:38:32;;;;;;;17.98;11.30;;;15.30;99.90;;;;;;5048187;28;20456;-74
2022/10/22 07:40:58;;;;;;;22.50;11.07;;;15.20;99.90;;;;;;5048275;28;21047;-73
2022/10/22 07:43:24;;;;;;;18.98;10.05;;;15.30;99.90;;;;;;5051971;28;20551;-73
2022/10/22 07:45:49;;;;;;;20.60;9.63;;;15.50;99.90;;;;;;5051466;28;20489;-73
2022/10/22 07:48:15;;;;;;;16.33;9.10;;;15.60;99.90;;;;;;5051964;28;20735;-72
2022/10/22 07:50:41;;;;;;;15.20;7.88;;;15.70;99.90;;;;;;5051356;28;20390;-72
2022/10/22 07:53:07;;;;;;;15.20;8.00;;;15.80;99.90;;;;;;5049533;28;20455;-72
2022/10/22 07:55:33;;;;;;;16.63;7.35;;;15.90;99.90;;;;;;5051263;28;20827;-73
2022/10/22 07:57:59;;;;;;;13.02;7.63;;;15.90;99.90;;;;;;5031109;28;20970;-73
2022/10/22 08:00:25;;;;;;;11.52;6.50;;;15.90;99.90;;;;;;5051105;28;20500;-72
2022/10/22 08:02:51;;;;;;;22.40;8.70;;;15.80;99.90;;;;;;5032913;28;20385;-72
2022/10/22 08:05:16;;;;;;;15.15;6.40;;;15.70;99.90;;;;;;5050803;28;20409;-71
2022/10/22 08:07:42;;;;;;;17.00;6.90;;;15.80;99.90;;;;;;5051434;28;20464;-72
2022/10/22 08:10:10;;;;;;;16.10;7.18;;;15.90;99.90;;;;;;5051294;28;20912;-72
2022/10/22 08:12:36;;;;;;;15.40;6.93;;;16.00;99.90;;;;;;5032461;28;20834;-71
2022/10/22 08:15:02;;;;;;;18.02;6.82;;;16.10;99.90;;;;;;5050924;28;20412;-73
2022/10/22 08:17:27;;;;;;;12.60;6.57;;;16.20;99.90;;;;;;5050574;28;21073;-73
2022/10/22 08:19:53;;;;;;;13.43;6.37;;;16.20;99.90;;;;;;5050847;28;20389;-72
2022/10/22 08:22:18;;;;;;;17.00;6.13;;;16.30;97.50;;;;;;5051027;28;20381;-73
2022/10/22 08:24:44;;;;;;;13.13;6.10;;;16.40;96.90;;;;;;5053397;28;20401;-74
2022/10/22 08:27:09;;;;;;;19.10;6.10;;;16.50;95.00;;;;;;5033754;28;20412;-73
2022/10/22 08:29:35;;;;;;;12.90;6.40;;;16.70;88.30;;;;;;5051213;28;20496;-72
2022/10/22 08:32:01;;;;;;;16.55;5.90;;;16.80;86.80;;;;;;5033648;28;20397;-72
2022/10/22 08:34:28;;;;;;;15.57;5.80;;;16.90;86.80;;;;;;5060698;28;20405;-74
2022/10/22 08:36:53;;;;;;;12.50;5.60;;;17.00;84.70;;;;;;5050971;28;20401;-72
2022/10/22 08:39:19;;;;;;;14.80;6.45;;;17.00;83.90;;;;;;5050612;28;20886;-71
2022/10/22 08:42:19;;;;;;;13.30;5.20;;;17.00;81.00;;;;;;5050263;28;20451;-74
2022/10/22 08:45:15;;;;;;;17.13;5.10;;;17.00;82.30;;;;;;5032927;28;20420;-74
2022/10/22 08:47:53;;;;;;;12.50;5.40;;;17.00;81.20;;;;;;5046771;28;20747;-74
2022/10/22 08:50:29;;;;;;;13.43;6.43;;;17.10;79.80;;;;;;5050238;28;20488;-73
2022/10/22 08:53:01;;;;;;;13.52;5.13;;;17.10;79.80;;;;;;5048629;28;20858;-73
2022/10/22 08:55:27;;;;;;;15.15;4.75;;;17.20;81.20;;;;;;5050480;28;20377;-71
2022/10/22 08:58:16;;;;;;;11.23;4.80;;;17.40;73.80;;;;;;5048530;28;20905;-72
2022/10/22 09:00:52;;;;;;;12.57;4.57;;;17.70;69.90;;;;;;5050452;28;20524;-73
2022/10/22 09:03:47;;;;;;;15.07;4.60;;;17.80;71.30;;;;;;5049950;28;20413;-71
2022/10/22 09:06:23;;;;;;;19.05;5.45;;;17.80;70.40;;;;;;5045668;28;20385;-73
2022/10/22 09:08:49;;;;;;;15.40;5.20;;;17.90;68.40;;;;;;5050373;28;20511;-72
2022/10/22 09:11:24;;;;;;;11.93;4.70;;;18.00;67.40;;;;;;5050341;28;20377;-73
2022/10/22 09:13:50;;;;;;;11.20;3.90;;;18.10;65.10;;;;;;5050184;28;20393;-72
2022/10/22 09:16:29;;;;;;;10.45;4.10;;;18.20;64.00;;;;;;5049686;28;20543;-73
2022/10/22 09:19:03;;;;;;;17.60;4.70;;;18.30;59.80;;;;;;5050239;28;20390;-72
2022/10/22 09:22:01;;;;;;;15.13;4.67;;;18.40;59.10;;;;;;5038942;28;20486;-72
2022/10/22 09:24:34;;;;;;;13.93;4.70;;;18.50;56.60;;;;;;5079003;28;20412;-73
2022/10/22 09:27:01;;;;;;;12.40;3.60;;;18.50;58.50;;;;;;5064276;28;20395;-73
2022/10/22 09:29:32;;;;;;;17.90;4.15;;;18.40;56.80;;;;;;5060694;28;20446;-73
2022/10/22 09:31:58;;;;;;;16.80;3.97;;;18.40;57.10;;;;;;5055971;28;20754;-73
2022/10/22 09:34:23;;;;;;;16.00;4.20;;;18.40;54.30;;;;;;5053814;28;20406;-73
2022/10/22 09:37:01;;;;;;;13.47;3.90;;;18.40;53.20;;;;;;5051406;28;20402;-72
2022/10/22 09:39:32;;;;;;;13.73;4.97;;;18.20;54.20;;;;;;5050898;28;20392;-73
2022/10/22 09:41:57;;;;;;;9.50;3.25;;;18.20;55.20;;;;;;5032188;28;20467;-73
2022/10/22 09:44:23;;;;;;;8.87;3.10;;;18.00;56.40;;;;;;5049536;28;20909;-72
2022/10/22 09:46:49;;;;;;;9.80;3.37;;;18.10;53.60;;;;;;5049288;28;20393;-73
2022/10/22 09:49:17;;;;;;;11.40;3.50;;;18.20;53.80;;;;;;5047245;28;20381;-74
2022/10/22 09:51:52;;;;;;;11.68;3.70;;;18.20;53.70;;;;;;5028678;28;20477;-74
2022/10/22 09:54:19;;;;;;;12.07;3.40;;;18.40;50.60;;;;;;5048308;28;20420;-72
2022/10/22 09:57:01;;;;;;;14.10;3.80;;;18.50;51.20;;;;;;5047091;28;20400;-72
2022/10/22 09:59:29;;;;;;;10.30;3.23;;;18.60;49.50;;;;;;5049141;28;20507;-72
2022/10/22 10:01:58;;;;;;;12.70;3.42;;;18.60;49.00;;;;;;5049547;28;20396;-72
2022/10/22 10:04:24;;;;;;;11.68;3.30;;;18.80;48.70;;;;;;5049320;28;20404;-73
2022/10/22 10:06:55;;;;;;;10.47;3.23;;;18.90;48.10;;;;;;5031936;28;20476;-75
2022/10/22 10:09:23;;;;;;;8.70;3.10;;;19.00;46.10;;;;;;5049670;28;20411;-74
2022/10/22 10:12:04;;;;;;;6.40;2.72;;;19.10;43.90;;;;;;5030972;28;20435;-74
2022/10/22 10:14:53;;;;;;;12.40;3.00;;;19.10;43.80;;;;;;5049129;28;20949;-73
2022/10/22 10:17:46;;;;;;;10.20;3.10;;;19.40;41.10;;;;;;5048938;28;20794;-74
2022/10/22 10:20:40;;;;;;;11.30;3.67;;;19.50;39.90;;;;;;5048584;28;20454;-72
2022/10/22 10:23:29;;;;;;;9.35;3.30;;;19.40;40.50;;;;;;5048420;28;20435;-73
2022/10/22 10:26:04;;;;;;;16.55;3.25;;;19.40;40.60;;;;;;5049636;28;20427;-72
2022/10/22 10:28:35;;;;;;;7.23;2.50;;;19.60;37.50;;;;;;5048928;28;21055;-74
2022/10/22 10:31:33;;;;;;;9.43;2.65;;;19.40;38.00;;;;;;5048394;28;20393;-74
2022/10/22 10:34:29;;;;;;;9.45;2.90;;;19.40;38.70;;;;;;5048303;28;20908;-73
2022/10/22 10:37:19;;;;;;;13.70;3.50;;;19.50;38.90;;;;;;5031642;28;20889;-74
2022/10/22 10:39:44;;;;;;;25.42;3.90;;;19.80;38.10;;;;;;5048441;28;20393;-74
2022/10/22 10:42:22;;;;;;;10.17;2.70;;;19.90;37.40;;;;;;5047945;28;20961;-75
2022/10/22 10:45:05;;;;;;;13.43;3.20;;;20.20;35.60;;;;;;5048766;28;20424;-73
2022/10/22 10:47:55;;;;;;;7.65;2.30;;;20.10;34.90;;;;;;5049518;28;20463;-72
2022/10/22 10:50:54;;;;;;;8.90;3.28;;;20.10;35.30;;;;;;5049241;28;20878;-72
2022/10/22 10:53:40;;;;;;;9.32;2.90;;;20.10;35.00;;;;;;5049650;28;20875;-74
2022/10/22 10:56:20;;;;;;;7.57;2.20;;;20.00;35.20;;;;;;5048802;28;20385;-72
2022/10/22 10:58:56;;;;;;;8.93;2.70;;;20.20;34.70;;;;;;5046722;28;20396;-74
2022/10/22 11:01:46;;;;;;;7.18;2.00;;;20.10;34.10;;;;;;5047424;28;20712;-72
2022/10/22 11:04:33;;;;;;;10.05;2.30;;;20.00;33.90;;;;;;5048038;28;20442;-74
2022/10/22 11:07:04;;;;;;;10.93;2.33;;;19.80;34.90;;;;;;5048754;28;20443;-72
2022/10/22 11:09:36;;;;;;;7.55;2.10;;;19.80;33.60;;;;;;5048874;28;20409;-72
2022/10/22 11:12:11;;;;;;;9.88;2.42;;;19.70;34.60;;;;;;5031195;28;20412;-73
2022/10/22 11:15:04;;;;;;;7.75;2.17;;;19.70;34.30;;;;;;5048869;28;20465;-72
2022/10/22 11:17:44;;;;;;;6.40;2.10;;;19.60;34.80;;;;;;5033037;28;20480;-73
2022/10/22 11:20:16;;;;;;;5.15;2.03;;;19.70;35.50;;;;;;5052428;28;20464;-74
2022/10/22 11:22:58;;;;;;;10.32;2.70;;;19.80;35.00;;;;;;5052848;28;20381;-74
2022/10/22 11:25:29;;;;;;;11.85;2.80;;;19.90;34.80;;;;;;5052265;28;20940;-73
2022/10/22 11:28:06;;;;;;;6.28;2.30;;;19.80;35.30;;;;;;5053411;28;20385;-72
2022/10/22 11:30:35;;;;;;;10.75;2.22;;;19.80;34.80;;;;;;5052509;28;20436;-73
2022/10/22 11:33:04;;;;;;;10.23;2.53;;;19.80;34.50;;;;;;5051947;28;20799;-73
2022/10/22 11:35:33;;;;;;;8.18;2.13;;;19.70;34.70;;;;;;5035397;28;20471;-72
2022/10/22 11:38:01;;;;;;;11.23;2.80;;;19.70;35.00;;;;;;5053456;28;20776;-72
2022/10/22 11:40:36;;;;;;;7.27;2.20;;;19.70;35.40;;;;;;5034652;28;20458;-76
2022/10/22 11:43:10;;;;;;;10.07;2.28;;;19.80;34.90;;;;;;5054174;28;20409;-74
2022/10/22 11:45:41;;;;;;;11.65;2.47;;;19.90;34.40;;;;;;5052168;28;20392;-73
2022/10/22 11:48:10;;;;;;;8.50;2.40;;;19.90;33.00;;;;;;5052781;28;20397;-72
2022/10/22 11:50:47;;;;;;;11.82;2.90;;;20.10;33.10;;;;;;5052324;28;20464;-72
2022/10/22 11:53:13;;;;;;;6.35;2.00;;;20.10;33.80;;;;;;5051285;28;20386;-72
2022/10/22 11:55:54;;;;;;;9.00;2.38;;;20.10;33.20;;;;;;5051923;28;20381;-72
2022/10/22 11:58:29;;;;;;;16.90;2.72;;;20.20;32.90;;;;;;5032114;28;20390;-74
2022/10/22 12:00:56;;;;;;;8.20;2.60;;;20.10;32.60;;;;;;5051213;28;20381;-74
2022/10/22 12:03:31;;;;;;;6.85;2.30;;;20.00;33.30;;;;;;5051843;28;20414;-73
2022/10/22 12:06:12;;;;;;;10.43;2.28;;;19.90;33.20;;;;;;5053922;28;20385;-73
2022/10/22 12:08:47;;;;;;;7.63;2.40;;;19.90;33.10;;;;;;5057392;28;20382;-74
2022/10/22 12:11:26;;;;;;;10.80;1.90;;;19.80;33.50;;;;;;5056305;28;20385;-76
2022/10/22 12:14:13;;;;;;;11.88;2.70;;;19.80;34.10;;;;;;5059137;28;20389;-75
2022/10/22 12:16:50;;;;;;;6.88;2.80;;;19.70;34.50;;;;;;5056088;28;20440;-72
2022/10/22 12:19:27;;;;;;;10.63;3.70;;;19.80;34.40;;;;;;5055271;28;20401;-74
2022/10/22 12:22:09;;;;;;;11.77;2.90;;;20.00;33.80;;;;;;5055393;28;20389;-74
2022/10/22 12:24:45;;;;;;;5.43;2.10;;;19.90;33.50;;;;;;5021315;28;20406;-73
2022/10/22 12:27:21;;;;;;;11.00;2.20;;;19.80;33.00;;;;;;5053904;28;20401;-74
2022/10/22 12:29:47;;;;;;;4.65;2.00;;;19.70;33.90;;;;;;5041847;28;20393;-72
2022/10/22 12:32:15;;;;;;;9.10;2.47;;;19.60;34.40;;;;;;5050822;28;20442;-69
2022/10/22 12:34:48;;;;;;;7.80;2.50;;;19.50;34.40;;;;;;5050683;28;20413;-74
2022/10/22 12:37:15;;;;;;;7.45;2.13;;;19.50;34.40;;;;;;5052009;28;20394;-74
2022/10/22 12:39:40;;;;;;;12.45;2.90;;;19.70;33.80;;;;;;5052667;28;20408;-74
2022/10/22 12:42:11;;;;;;;8.68;2.00;;;19.60;33.40;;;;;;5053688;28;20460;-73
2022/10/22 12:44:37;;;;;;;7.13;2.20;;;19.60;32.70;;;;;;5037423;28;20414;-71
2022/10/22 12:47:04;;;;;;;9.03;2.60;;;19.60;32.60;;;;;;5054423;28;20385;-74
2022/10/22 12:49:40;;;;;;;11.43;2.35;;;19.60;32.90;;;;;;5053137;28;20397;-75
2022/10/22 12:52:13;;;;;;;8.80;2.20;;;19.70;32.40;;;;;;5055854;28;20406;-73
2022/10/22 12:54:39;;;;;;;12.75;2.80;;;19.80;32.70;;;;;;5070403;28;20388;-73